Elettra — H9AK — position and weather

sailwx.info

Track history (hours):
 
Tides and Currents Weather Stations Pressure Air Temp Water Temp Dewpoint Dewpoint Depression Visibility Wind Speed Wind Dir Waves Ship Positions

Elettra

Last reported at 2016-Jul-24 22:29 UTC. Time now 2016-Jul-28 20:22 UTC.
Position S 26°53' E 153°53'.

Length 254 m; draft 14 m.

Type: Cargo ship. MMSI: 371188000.

Date/timePositionNaut miles runAvg speedWind from/ knotsBaromVisibWave heightAir tempDewpointWater temp
2016-Jul-24 22:29S 26°53' E 153°53'4912.0
2016-Jul-24 18:24S 27°42' E 153°52'1011.3
2016-Jul-24 17:32S 27°52' E 153°52'1110.9
2016-Jul-24 16:32S 28°03' E 153°52'1111.1
2016-Jul-24 15:33S 28°14' E 153°51'27111.8
2016-Jul-23 16:33S 32°36' E 152°36'1313.0
2016-Jul-23 15:33S 32°46' E 152°25'1313.4
2016-Jul-23 14:33S 32°53' E 152°11'1312.9
2016-Jul-23 13:33S 32°57' E 151°57'8 8.0
2016-Jul-23 12:33S 32°55' E 151°48'3 2.8
2016-Jul-23 11:33S 32°53' E 151°45'0 0.0
2016-Jul-22 22:25S 32°53' E 151°45'0 0.0
2016-Jul-22 15:31S 32°53' E 151°45'0 0.0
2016-Jul-22 13:07S 32°53' E 151°45'0 0.0
2016-Jul-22 12:25S 32°53' E 151°45'0 0.0
2016-Jul-22 09:31S 32°53' E 151°45'0 0.0
2016-Jul-22 07:28S 32°53' E 151°45'9 4.6
2016-Jul-22 05:33S 32°59' E 151°53'5 5.3
2016-Jul-22 04:33S 33°02' E 151°58'9 9.0
2016-Jul-22 03:33S 32°56' E 152°07'1313.5
2016-Jul-22 02:33S 32°52' E 152°22'1414.4
2016-Jul-22 01:33S 32°47' E 152°38'1515.2
2016-Jul-22 00:33S 32°36' E 152°50'1716.3
2016-Jul-21 23:33S 32°24' E 153°04'1615.8
2016-Jul-21 22:33S 32°13' E 153°17'  
Track history (hours):
 
Tides and Currents Weather Stations Pressure Air Temp Water Temp Dewpoint Dewpoint Depression Visibility Wind Speed Wind Dir Waves Ship Positions

Elettra

Last reported at 2016-Jul-24 22:29 UTC. Time now 2016-Jul-28 20:22 UTC.
Position S 26°53' E 153°53'.

Length 254 m; draft 14 m.

Type: Cargo ship. MMSI: 371188000.

Date/timePositionNaut miles runAvg speedWind from/ knotsBaromVisibWave heightAir tempDewpointWater temp
2016-Jul-24 22:29S 26°53' E 153°53'4912.0
2016-Jul-24 18:24S 27°42' E 153°52'1011.3
2016-Jul-24 17:32S 27°52' E 153°52'1110.9
2016-Jul-24 16:32S 28°03' E 153°52'1111.1
2016-Jul-24 15:33S 28°14' E 153°51'27111.8
2016-Jul-23 16:33S 32°36' E 152°36'1313.0
2016-Jul-23 15:33S 32°46' E 152°25'1313.4
2016-Jul-23 14:33S 32°53' E 152°11'1312.9
2016-Jul-23 13:33S 32°57' E 151°57'8 8.0
2016-Jul-23 12:33S 32°55' E 151°48'3 2.8
2016-Jul-23 11:33S 32°53' E 151°45'0 0.0
2016-Jul-22 22:25S 32°53' E 151°45'0 0.0
2016-Jul-22 15:31S 32°53' E 151°45'0 0.0
2016-Jul-22 13:07S 32°53' E 151°45'0 0.0
2016-Jul-22 12:25S 32°53' E 151°45'0 0.0
2016-Jul-22 09:31S 32°53' E 151°45'0 0.0
2016-Jul-22 07:28S 32°53' E 151°45'9 4.6
2016-Jul-22 05:33S 32°59' E 151°53'5 5.3
2016-Jul-22 04:33S 33°02' E 151°58'9 9.0
2016-Jul-22 03:33S 32°56' E 152°07'1313.5
2016-Jul-22 02:33S 32°52' E 152°22'1414.4
2016-Jul-22 01:33S 32°47' E 152°38'1515.2
2016-Jul-22 00:33S 32°36' E 152°50'1716.3
2016-Jul-21 23:33S 32°24' E 153°04'1615.8
2016-Jul-21 22:33S 32°13' E 153°17'  

Dump ship's entire track history